createdAt,value
2022-10-19T00:02:11.473Z,99015.69
2022-10-19T00:04:38.207Z,98910.03
2022-10-19T00:07:04.836Z,98885.97
2022-10-19T00:09:31.496Z,98858.91
2022-10-19T00:11:58.195Z,98960.25
2022-10-19T00:14:25.198Z,98964.84
2022-10-19T00:16:53.183Z,99083.91
2022-10-19T00:19:24.178Z,99017.97
2022-10-19T00:24:22.510Z,98882.09
2022-10-19T00:26:49.382Z,98886.84
2022-10-19T00:29:16.308Z,98844.69
2022-10-19T00:31:43.256Z,98994.63
2022-10-19T00:34:10.001Z,98984.81
2022-10-19T00:36:39.451Z,98756.31
2022-10-19T00:39:10.634Z,98927.69
2022-10-19T00:41:38.497Z,98971.81
2022-10-19T00:44:12.691Z,98978.78
2022-10-19T00:46:42.039Z,98983.75
2022-10-19T00:49:21.828Z,99036.81
2022-10-19T00:52:04.393Z,99032.69
2022-10-19T00:54:36.320Z,98932.38
2022-10-19T00:57:05.215Z,99003.47
2022-10-19T00:59:32.737Z,98984.44
2022-10-19T01:02:02.598Z,98953.41
2022-10-19T01:04:30.703Z,98979.66
2022-10-19T01:06:58.299Z,98982.25
2022-10-19T01:09:25.008Z,98872.22
2022-10-19T01:12:25.225Z,98984.53
2022-10-19T01:15:03.140Z,98769.75
2022-10-19T01:17:42.000Z,98963.56
2022-10-19T01:20:30.215Z,98956.97
2022-10-19T01:23:17.899Z,98953.28
2022-10-19T01:25:50.358Z,98952.91
2022-10-19T01:28:35.809Z,98952.38
2022-10-19T01:31:15.414Z,98853.91
2022-10-19T01:33:53.583Z,98802.53
2022-10-19T01:36:32.808Z,98820.28
2022-10-19T01:39:26.594Z,98875.75
2022-10-19T01:42:03.854Z,98828.28
2022-10-19T01:45:11.386Z,98947.28
2022-10-19T01:47:50.794Z,98951.25
2022-10-19T01:50:31.505Z,98871.59
2022-10-19T01:52:59.275Z,98899.97
2022-10-19T01:55:27.704Z,98872.47
2022-10-19T01:58:01.575Z,98612.72
2022-10-19T02:00:31.797Z,98906.19
2022-10-19T02:02:59.327Z,98949.72
2022-10-19T02:05:31.555Z,98940.28
2022-10-19T02:08:01.168Z,98927.66
2022-10-19T02:10:29.864Z,98945.56
2022-10-19T02:12:58.267Z,98945.16
2022-10-19T02:15:28.166Z,98830.13
2022-10-19T02:17:59.729Z,98910.28
2022-10-19T02:20:28.133Z,98860.66
2022-10-19T02:22:54.953Z,98908.75
2022-10-19T02:25:22.247Z,98907.28
2022-10-19T02:27:49.638Z,98942.06
2022-10-19T02:30:19.318Z,98882.41
2022-10-19T02:32:46.026Z,98921.56
2022-10-19T02:35:14.725Z,98918.84
2022-10-19T02:37:41.982Z,98916.78
2022-10-19T02:40:10.108Z,98920.81
2022-10-19T02:43:04.008Z,98832.13
2022-10-19T02:45:42.896Z,98908.53
2022-10-19T02:48:19.936Z,98807.53
2022-10-19T02:50:51.968Z,98803.00
2022-10-19T02:53:18.772Z,98904.06
2022-10-19T02:55:49.029Z,98898.25
2022-10-19T02:58:16.196Z,98725.66
2022-10-19T03:00:43.076Z,98747.00
2022-10-19T03:03:10.313Z,98895.44
2022-10-19T03:05:37.025Z,98727.94
2022-10-19T03:08:03.785Z,98886.94
2022-10-19T03:10:30.398Z,98782.50
2022-10-19T03:12:58.574Z,98861.03
2022-10-19T03:15:28.986Z,98874.25
2022-10-19T03:17:56.521Z,98866.25
2022-10-19T03:20:23.340Z,98869.06
2022-10-19T03:22:50.548Z,98872.72
2022-10-19T03:25:17.160Z,98727.13
2022-10-19T03:27:43.855Z,98783.00
2022-10-19T03:30:11.058Z,98867.41
2022-10-19T03:32:37.650Z,98708.72
2022-10-19T03:35:04.819Z,98845.28
2022-10-19T03:37:31.549Z,98871.50
2022-10-19T03:39:58.296Z,98785.81
2022-10-19T03:42:24.910Z,98731.63
2022-10-19T03:44:51.488Z,98854.03
2022-10-19T03:47:18.078Z,98848.13
2022-10-19T03:49:44.757Z,98750.09
2022-10-19T03:52:11.528Z,98693.72
2022-10-19T03:54:38.216Z,98858.44
2022-10-19T03:57:05.432Z,98797.59
2022-10-19T03:59:32.270Z,98724.78
2022-10-19T04:01:58.956Z,98755.66
2022-10-19T04:04:25.631Z,98827.44
2022-10-19T04:06:53.852Z,98690.56
2022-10-19T04:09:22.032Z,98743.66
2022-10-19T04:11:49.683Z,98805.97
2022-10-19T04:14:27.092Z,98787.16
2022-10-19T04:17:03.113Z,98758.94
2022-10-19T04:19:29.907Z,98699.53
2022-10-19T04:21:56.887Z,98794.31
2022-10-19T04:24:23.840Z,98795.25
2022-10-19T04:26:52.933Z,98837.03
2022-10-19T04:29:22.781Z,98795.38
2022-10-19T04:31:53.403Z,98796.09
2022-10-19T04:34:20.242Z,98692.97
2022-10-19T04:36:46.912Z,98638.53
2022-10-19T04:39:13.891Z,98653.31
2022-10-19T04:41:40.456Z,98624.59
2022-10-19T04:44:07.415Z,98738.22
2022-10-19T04:46:34.531Z,98628.53
2022-10-19T04:49:01.488Z,98764.34
2022-10-19T04:51:28.222Z,98755.63
2022-10-19T04:53:59.526Z,98677.50
2022-10-19T04:56:27.463Z,98662.91
2022-10-19T04:58:56.512Z,98785.34
2022-10-19T05:01:24.458Z,98764.34
2022-10-19T05:03:59.298Z,98592.50
2022-10-19T05:06:26.476Z,98591.94
2022-10-19T05:08:53.304Z,98645.53
2022-10-19T05:11:20.409Z,98753.41
2022-10-19T05:13:47.480Z,98714.88
2022-10-19T05:16:16.660Z,98604.97
2022-10-19T05:18:46.767Z,98748.66
2022-10-19T05:21:14.150Z,98754.22
2022-10-19T05:23:41.770Z,98740.53
2022-10-19T05:26:11.192Z,98740.75
2022-10-19T05:28:38.231Z,98606.25
2022-10-19T05:31:14.147Z,98726.31
2022-10-19T05:33:41.555Z,98557.88
2022-10-19T05:36:26.103Z,98719.16
2022-10-19T05:38:54.660Z,98683.13
2022-10-19T05:41:22.311Z,98726.59
2022-10-19T05:43:54.265Z,98686.44
2022-10-19T05:46:21.119Z,98726.72
2022-10-19T05:48:47.993Z,98726.16
2022-10-19T05:51:17.374Z,98696.13
2022-10-19T05:53:44.611Z,98716.78
2022-10-19T05:56:25.376Z,98713.88
2022-10-19T05:58:52.572Z,98733.00
2022-10-19T06:01:20.298Z,98706.78
2022-10-19T06:03:47.895Z,98625.19
2022-10-19T06:06:14.780Z,98703.94
2022-10-19T06:08:41.492Z,98704.66
2022-10-19T06:11:10.068Z,98697.91
2022-10-19T06:13:37.302Z,98666.47
2022-10-19T06:16:05.161Z,98693.72
2022-10-19T06:18:31.767Z,98690.88
2022-10-19T06:21:03.853Z,98539.19
2022-10-19T06:23:31.337Z,98690.81
2022-10-19T06:25:58.244Z,98644.78
2022-10-19T06:28:25.111Z,98652.31
2022-10-19T06:30:51.631Z,98641.56
2022-10-19T06:33:18.421Z,98687.88
2022-10-19T06:35:45.039Z,98721.31
2022-10-19T06:38:13.799Z,98650.53
2022-10-19T06:40:40.434Z,98640.63
2022-10-19T06:43:07.064Z,98641.31
2022-10-19T06:45:36.040Z,98623.66
2022-10-19T06:48:06.626Z,98680.41
2022-10-19T06:50:35.396Z,98675.00
2022-10-19T06:53:02.094Z,98641.69
2022-10-19T06:55:28.735Z,98617.94
2022-10-19T06:57:58.536Z,98680.56
2022-10-19T07:00:25.088Z,98556.63
2022-10-19T07:02:51.666Z,98664.44
2022-10-19T07:05:18.479Z,98677.91
2022-10-19T07:07:45.627Z,98670.09
2022-10-19T07:10:12.584Z,98670.91
2022-10-19T07:12:39.258Z,98577.16
2022-10-19T07:15:06.418Z,98617.53
2022-10-19T07:17:33.248Z,98572.56
2022-10-19T07:20:00.166Z,98619.13
2022-10-19T07:22:28.229Z,98668.94
2022-10-19T07:24:55.071Z,98569.38
2022-10-19T07:27:21.791Z,98592.81
2022-10-19T07:29:48.463Z,98652.38
2022-10-19T07:32:15.073Z,98534.22
2022-10-19T07:34:41.694Z,98661.94
2022-10-19T07:37:08.331Z,98658.03
2022-10-19T07:39:35.089Z,98574.78
2022-10-19T07:42:01.705Z,98488.13
2022-10-19T07:44:28.427Z,98689.63
2022-10-19T07:46:54.985Z,98681.84
2022-10-19T07:49:21.888Z,98685.03
2022-10-19T07:51:48.579Z,98664.97
2022-10-19T07:54:15.319Z,98688.19
2022-10-19T07:56:41.977Z,98673.75
2022-10-19T07:59:09.906Z,98677.25
2022-10-19T08:01:41.554Z,98728.56
2022-10-19T08:06:55.246Z,98568.28
2022-10-19T08:12:13.797Z,98644.41
2022-10-19T08:14:41.750Z,98704.94
2022-10-19T08:17:11.753Z,98586.53
2022-10-19T08:19:43.208Z,98692.44
2022-10-19T08:22:10.447Z,98678.66
2022-10-19T08:24:37.154Z,98613.16
2022-10-19T08:27:03.959Z,98712.09
2022-10-19T08:29:31.725Z,98705.47
2022-10-19T08:31:59.612Z,98709.91
2022-10-19T08:34:26.419Z,98720.00
2022-10-19T08:36:54.063Z,98712.50
2022-10-19T08:39:20.628Z,98718.97
2022-10-19T08:41:58.456Z,98724.69
2022-10-19T08:44:43.690Z,98714.03
2022-10-19T08:47:13.832Z,98715.94
2022-10-19T08:49:41.819Z,98532.44
2022-10-19T08:52:19.652Z,98706.34
2022-10-19T08:54:58.895Z,98729.34
2022-10-19T08:57:33.741Z,98777.63
2022-10-19T09:00:21.961Z,98749.66
2022-10-19T09:02:58.039Z,98738.91
2022-10-19T09:05:54.239Z,98730.47
2022-10-19T09:08:21.405Z,98716.97
2022-10-19T09:10:52.465Z,98734.22
2022-10-19T09:13:29.251Z,98744.50
2022-10-19T09:16:04.663Z,98694.38
2022-10-19T09:18:37.171Z,98773.63
2022-10-19T09:21:12.291Z,98738.13
2022-10-19T09:23:47.207Z,98676.34
2022-10-19T09:26:17.895Z,98748.00
2022-10-19T09:29:06.649Z,98736.34
2022-10-19T09:31:40.730Z,98740.22
2022-10-19T09:34:20.788Z,98766.06
2022-10-19T09:36:52.484Z,98695.22
2022-10-19T09:39:20.197Z,98792.91
2022-10-19T09:41:51.765Z,98765.03
2022-10-19T09:44:19.091Z,98761.22
2022-10-19T09:47:23.143Z,98503.47
2022-10-19T09:49:50.139Z,98730.03
2022-10-19T09:52:32.815Z,98744.66
2022-10-19T09:55:06.103Z,98769.88
2022-10-19T09:57:33.131Z,98648.00
2022-10-19T10:00:00.097Z,98740.59
2022-10-19T10:02:32.671Z,98673.78
2022-10-19T10:05:14.100Z,98204.38
2022-10-19T10:07:41.168Z,98774.94
2022-10-19T10:10:30.457Z,98752.94
2022-10-19T10:13:00.962Z,98788.03
2022-10-19T10:15:30.863Z,98784.59
2022-10-19T10:17:58.478Z,98762.00
2022-10-19T10:20:35.728Z,98799.03
2022-10-19T10:23:06.345Z,98788.38
2022-10-19T10:25:36.231Z,98807.06
2022-10-19T10:28:20.036Z,98738.81
2022-10-19T10:30:48.872Z,98741.97
2022-10-19T10:33:27.223Z,98733.22
2022-10-19T10:36:11.331Z,98772.31
2022-10-19T10:38:45.971Z,98771.53
2022-10-19T10:41:17.642Z,98774.63
2022-10-19T10:44:04.922Z,98765.53
2022-10-19T10:46:42.668Z,98810.72
2022-10-19T10:49:19.935Z,98795.88
2022-10-19T10:51:53.041Z,98696.56
2022-10-19T10:54:25.698Z,98776.25
2022-10-19T10:57:16.536Z,98804.41
2022-10-19T10:59:59.411Z,98811.38
2022-10-19T11:02:50.895Z,98811.22
2022-10-19T11:05:23.753Z,98801.69
2022-10-19T11:08:01.057Z,98840.13
2022-10-19T11:10:33.153Z,98810.59
2022-10-19T11:13:24.166Z,98781.75
2022-10-19T11:15:58.925Z,98839.25
2022-10-19T11:18:30.172Z,98806.16
2022-10-19T11:21:22.870Z,98822.78
2022-10-19T11:24:05.873Z,98800.50
2022-10-19T11:26:49.673Z,98839.72
2022-10-19T11:29:33.633Z,98717.25
2022-10-19T11:32:00.489Z,98744.66
2022-10-19T11:34:43.990Z,98815.97
2022-10-19T11:37:49.920Z,98801.28
2022-10-19T11:41:16.959Z,98814.63
2022-10-19T11:43:49.283Z,98656.72
2022-10-19T11:46:42.123Z,98816.03
2022-10-19T11:49:20.189Z,98730.44
2022-10-19T11:51:57.549Z,98814.66
2022-10-19T11:54:33.114Z,98818.63
2022-10-19T11:57:11.600Z,98804.50
2022-10-19T12:00:08.282Z,98739.38
2022-10-19T12:03:15.671Z,98817.00
2022-10-19T12:06:18.002Z,98830.59
2022-10-19T12:08:49.107Z,98823.94
2022-10-19T12:11:55.386Z,98832.38
2022-10-19T12:14:30.141Z,98858.56
2022-10-19T12:17:02.569Z,98730.91
2022-10-19T12:19:36.062Z,98892.00
2022-10-19T12:22:06.241Z,98868.34
2022-10-19T12:24:34.420Z,98836.84
2022-10-19T12:27:02.164Z,98827.75
2022-10-19T12:29:36.311Z,98840.25
2022-10-19T12:32:05.799Z,98819.44
2022-10-19T12:34:59.186Z,98809.81
2022-10-19T12:37:41.622Z,98827.63
2022-10-19T12:40:27.716Z,98845.94
2022-10-19T12:43:07.826Z,98718.56
2022-10-19T12:45:40.383Z,98736.41
2022-10-19T12:48:15.709Z,98837.50
2022-10-19T12:50:48.601Z,98836.75
2022-10-19T12:53:30.880Z,98842.06
2022-10-19T12:56:06.731Z,98853.94
2022-10-19T12:58:47.618Z,98848.38
2022-10-19T13:01:23.249Z,98854.91
2022-10-19T13:04:10.866Z,98866.34
2022-10-19T13:06:43.707Z,98911.03
2022-10-19T13:09:29.964Z,98880.88
2022-10-19T13:12:21.866Z,98863.03
2022-10-19T13:14:51.487Z,98869.69
2022-10-19T13:17:37.060Z,98870.22
2022-10-19T13:20:15.731Z,98874.88
2022-10-19T13:22:48.957Z,98843.16
2022-10-19T13:25:29.562Z,98741.56
2022-10-19T13:28:28.185Z,98879.13
2022-10-19T13:31:00.497Z,98873.75
2022-10-19T13:33:32.757Z,98886.59
2022-10-19T13:35:59.745Z,98888.19
2022-10-19T13:38:55.890Z,98908.41
2022-10-19T13:41:26.344Z,98888.47
2022-10-19T13:44:18.249Z,98948.41
2022-10-19T13:46:59.968Z,98905.94
2022-10-19T13:49:48.069Z,98902.91
2022-10-19T13:52:42.528Z,98894.56
2022-10-19T13:55:22.783Z,98899.16
2022-10-19T13:58:14.118Z,98917.22
2022-10-19T14:01:13.142Z,98921.56
2022-10-19T14:03:57.941Z,98923.78
2022-10-19T14:06:32.671Z,98961.03
2022-10-19T14:09:17.535Z,98929.94
2022-10-19T14:11:48.439Z,98918.84
2022-10-19T14:14:25.181Z,98950.19
2022-10-19T14:17:04.459Z,98987.75
2022-10-19T14:19:51.427Z,98885.00
2022-10-19T14:22:25.998Z,98956.00
2022-10-19T14:24:59.652Z,98855.50
2022-10-19T14:27:26.589Z,98907.97
2022-10-19T14:29:54.764Z,98921.06
2022-10-19T14:32:26.144Z,98977.44
2022-10-19T14:34:53.916Z,98976.75
2022-10-19T14:37:23.961Z,98876.34
2022-10-19T14:39:59.465Z,98981.47
2022-10-19T14:42:36.913Z,98995.88
2022-10-19T14:45:04.300Z,98987.56
2022-10-19T14:47:31.029Z,99003.53
2022-10-19T14:49:57.712Z,98909.00
2022-10-19T14:52:43.074Z,98871.06
2022-10-19T14:55:17.862Z,99003.56
2022-10-19T14:57:49.145Z,99001.88
2022-10-19T15:00:24.047Z,98933.91
2022-10-19T15:03:01.412Z,99002.25
2022-10-19T15:05:35.707Z,99010.47
2022-10-19T15:08:15.172Z,99022.25
2022-10-19T15:10:45.817Z,98895.94
2022-10-19T15:13:28.959Z,98993.03
2022-10-19T15:15:56.078Z,99016.97
2022-10-19T15:18:47.470Z,99029.44
2022-10-19T15:21:18.499Z,99027.66
2022-10-19T15:23:52.565Z,99027.66
2022-10-19T15:26:24.981Z,99028.50
2022-10-19T15:28:54.723Z,99031.06
2022-10-19T15:31:25.529Z,98830.09
2022-10-19T15:34:00.759Z,99010.72
2022-10-19T15:36:30.048Z,99018.38
2022-10-19T15:39:18.149Z,99089.66
2022-10-19T15:41:51.620Z,99043.75
2022-10-19T15:44:42.165Z,99070.25
2022-10-19T15:47:14.932Z,99072.31
2022-10-19T15:49:41.637Z,99074.25
2022-10-19T15:52:20.349Z,98716.91
2022-10-19T15:54:48.110Z,99046.53
2022-10-19T15:57:40.842Z,99074.03
2022-10-19T16:00:17.473Z,99060.81
2022-10-19T16:02:44.582Z,99057.38
2022-10-19T16:05:11.568Z,99007.69
2022-10-19T16:07:40.387Z,98956.84
2022-10-19T16:10:08.735Z,99100.81
2022-10-19T16:12:35.379Z,99095.28
2022-10-19T16:15:02.005Z,99112.72
2022-10-19T16:17:30.321Z,99111.88
2022-10-19T16:19:56.968Z,99100.50
2022-10-19T16:22:23.744Z,99121.41
2022-10-19T16:24:50.456Z,98987.38
2022-10-19T16:27:17.173Z,99031.09
2022-10-19T16:29:44.561Z,99071.59
2022-10-19T16:32:11.481Z,99008.09
2022-10-19T16:34:38.188Z,99090.75
2022-10-19T16:37:06.904Z,99128.47
2022-10-19T16:39:35.005Z,99143.31
2022-10-19T16:42:01.684Z,99029.72
2022-10-19T16:44:28.353Z,99128.72
2022-10-19T16:46:58.734Z,99142.31
2022-10-19T16:49:26.176Z,99143.31
2022-10-19T16:51:56.274Z,98970.31
2022-10-19T16:54:26.478Z,99113.34
2022-10-19T16:56:53.209Z,99147.78
2022-10-19T16:59:20.010Z,99031.78
2022-10-19T17:01:47.533Z,98999.56
2022-10-19T17:04:17.419Z,99106.63
2022-10-19T17:06:45.333Z,99081.22
2022-10-19T17:11:59.015Z,99156.63
2022-10-19T17:14:25.794Z,99049.28
2022-10-19T17:16:52.810Z,98897.41
2022-10-19T17:19:19.448Z,99007.44
2022-10-19T17:21:46.524Z,99165.13
2022-10-19T17:24:21.095Z,99117.50
2022-10-19T17:26:50.838Z,99148.13
2022-10-19T17:29:18.069Z,99167.47
2022-10-19T17:31:47.102Z,99136.59
2022-10-19T17:34:14.125Z,99166.19
2022-10-19T17:36:44.760Z,99051.75
2022-10-19T17:39:14.732Z,99134.34
2022-10-19T17:41:41.693Z,99137.84
2022-10-19T17:44:08.301Z,99174.00
2022-10-19T17:46:35.364Z,99094.09
2022-10-19T17:49:02.769Z,99020.69
2022-10-19T17:51:31.527Z,99139.66
2022-10-19T17:54:04.541Z,99100.22
2022-10-19T17:56:32.210Z,99131.91
2022-10-19T17:58:59.211Z,99005.03
2022-10-19T18:01:26.614Z,99097.34
2022-10-19T18:03:54.063Z,99157.16
2022-10-19T18:06:23.937Z,99168.28
2022-10-19T18:08:55.734Z,99171.72
2022-10-19T18:11:27.953Z,99168.28
2022-10-19T18:13:57.371Z,99169.53
2022-10-19T18:16:27.405Z,99166.25
2022-10-19T18:18:56.516Z,99125.09
2022-10-19T18:21:26.583Z,99274.19
2022-10-19T18:23:56.466Z,99185.03
2022-10-19T18:26:25.222Z,99175.94
2022-10-19T18:28:53.397Z,99086.47
2022-10-19T18:31:22.621Z,99190.09
2022-10-19T18:33:54.968Z,99230.91
2022-10-19T18:36:21.728Z,99057.78
2022-10-19T18:38:56.744Z,99021.94
2022-10-19T18:41:24.080Z,99189.78
2022-10-19T18:43:52.982Z,99192.59
2022-10-19T18:46:21.256Z,99177.13
2022-10-19T18:48:48.301Z,98938.88
2022-10-19T18:51:15.881Z,99173.00
2022-10-19T18:53:43.107Z,99200.19
2022-10-19T18:56:11.895Z,99155.16
2022-10-19T18:58:39.500Z,99062.72
2022-10-19T19:01:18.134Z,99146.91
2022-10-19T19:03:49.852Z,99208.00
2022-10-19T19:06:22.494Z,99197.69
2022-10-19T19:08:49.801Z,99191.59
2022-10-19T19:11:19.152Z,99167.78
2022-10-19T19:13:52.428Z,99215.09
2022-10-19T19:16:19.499Z,99078.09
2022-10-19T19:18:46.461Z,99091.06
2022-10-19T19:21:36.344Z,99232.13
2022-10-19T19:24:05.933Z,99151.84
2022-10-19T19:26:37.701Z,99265.97
2022-10-19T19:29:04.580Z,99212.50
2022-10-19T19:31:31.334Z,99235.41
2022-10-19T19:34:01.148Z,99173.03
2022-10-19T19:36:28.235Z,99208.28
2022-10-19T19:38:59.760Z,99233.19
2022-10-19T19:41:29.011Z,99231.81
2022-10-19T19:43:57.909Z,99168.69
2022-10-19T19:46:25.867Z,99243.38
2022-10-19T19:49:01.080Z,99273.63
2022-10-19T19:51:28.930Z,99244.41
2022-10-19T19:53:56.026Z,99247.06
2022-10-19T19:56:22.695Z,98997.31
2022-10-19T19:58:54.304Z,99248.75
2022-10-19T20:01:22.299Z,99219.47
2022-10-19T20:03:55.576Z,99255.53
2022-10-19T20:06:25.793Z,99263.19
2022-10-19T20:08:53.463Z,99269.38
2022-10-19T20:11:20.254Z,99119.09
2022-10-19T20:13:46.943Z,99283.59
2022-10-19T20:16:16.663Z,99291.56
2022-10-19T20:18:51.905Z,99296.50
2022-10-19T20:21:23.376Z,99264.72
2022-10-19T20:23:50.071Z,99303.69
2022-10-19T20:26:22.003Z,99315.09
2022-10-19T20:28:50.583Z,99325.38
2022-10-19T20:31:18.329Z,99279.75
2022-10-19T20:33:47.273Z,99319.63
2022-10-19T20:36:22.994Z,99316.38
2022-10-19T20:38:51.902Z,99319.03
2022-10-19T20:41:20.442Z,99313.63
2022-10-19T20:43:47.441Z,99209.75
2022-10-19T20:46:25.919Z,99328.75
2022-10-19T20:48:54.706Z,99218.00
2022-10-19T20:51:30.825Z,99209.72
2022-10-19T20:54:01.013Z,99313.56
2022-10-19T20:56:30.000Z,99304.38
2022-10-19T21:01:35.103Z,99319.06
2022-10-19T21:04:04.646Z,99252.59
2022-10-19T21:06:33.271Z,99131.75
2022-10-19T21:09:00.357Z,99273.91
2022-10-19T21:11:29.993Z,99355.69
2022-10-19T21:13:59.090Z,99331.84
2022-10-19T21:16:27.595Z,99331.16
2022-10-19T21:18:54.246Z,99326.09
2022-10-19T21:21:24.391Z,99198.59
2022-10-19T21:23:54.783Z,99128.00
2022-10-19T21:26:21.617Z,99341.41
2022-10-19T21:28:50.670Z,99303.66
2022-10-19T21:31:17.826Z,99243.72
2022-10-19T21:33:45.074Z,99346.34
2022-10-19T21:36:12.993Z,99336.19
2022-10-19T21:38:40.098Z,99340.22
2022-10-19T21:41:11.636Z,99264.72
2022-10-19T21:43:38.517Z,99315.19
2022-10-19T21:46:07.460Z,99248.25
2022-10-19T21:48:34.556Z,99247.81
2022-10-19T21:51:17.818Z,99410.75
2022-10-19T21:53:44.566Z,99311.00
2022-10-19T21:56:11.336Z,99344.38
2022-10-19T21:58:38.137Z,99012.41
2022-10-19T22:01:08.622Z,99350.97
2022-10-19T22:03:35.216Z,99357.81
2022-10-19T22:06:01.945Z,99355.22
2022-10-19T22:08:29.051Z,99357.13
2022-10-19T22:10:56.053Z,99152.88
2022-10-19T22:13:22.941Z,99371.56
2022-10-19T22:15:49.901Z,99361.09
2022-10-19T22:18:16.997Z,99358.66
2022-10-19T22:20:43.579Z,99325.03
2022-10-19T22:23:10.290Z,99355.91
2022-10-19T22:25:36.964Z,99251.97
2022-10-19T22:28:03.705Z,99358.72
2022-10-19T22:30:30.406Z,99335.59
2022-10-19T22:32:57.145Z,99379.97
2022-10-19T22:35:23.762Z,99371.47
2022-10-19T22:37:50.489Z,99363.34
2022-10-19T22:40:17.186Z,99380.03
2022-10-19T22:42:43.839Z,99389.81
2022-10-19T22:45:10.501Z,99269.22
2022-10-19T22:47:37.203Z,99379.66
2022-10-19T22:50:04.363Z,99289.75
2022-10-19T22:52:31.593Z,99390.50
2022-10-19T22:54:58.612Z,99387.94
2022-10-19T22:57:25.267Z,99262.47
2022-10-19T22:59:52.087Z,99397.50
2022-10-19T23:02:19.361Z,99265.22
2022-10-19T23:04:46.051Z,99342.88
2022-10-19T23:07:12.819Z,99404.34
2022-10-19T23:09:39.605Z,99308.00
2022-10-19T23:12:06.273Z,99394.25
2022-10-19T23:14:32.951Z,99361.63
2022-10-19T23:16:59.657Z,99390.47
2022-10-19T23:19:26.742Z,99394.44
2022-10-19T23:21:53.433Z,99073.78
2022-10-19T23:24:20.209Z,99311.75
2022-10-19T23:26:46.945Z,99294.50
2022-10-19T23:29:14.762Z,99393.06
2022-10-19T23:31:41.406Z,99395.41
2022-10-19T23:34:08.184Z,99391.25
2022-10-19T23:36:34.950Z,99175.09
2022-10-19T23:39:01.655Z,99355.34
2022-10-19T23:41:28.343Z,99438.84
2022-10-19T23:43:55.135Z,99417.16
2022-10-19T23:46:21.771Z,99417.78
2022-10-19T23:48:48.588Z,99394.66
2022-10-19T23:51:17.912Z,99469.94
2022-10-19T23:53:46.578Z,99421.13
2022-10-19T23:56:21.765Z,99360.84
2022-10-19T23:58:49.057Z,99294.38
